createdAt,value
2022-11-19T00:00:01.337Z,20.24
2022-11-19T00:01:08.868Z,20.24
2022-11-19T00:02:18.509Z,20.24
2022-11-19T00:03:27.034Z,20.23
2022-11-19T00:04:34.594Z,20.23
2022-11-19T00:05:44.182Z,20.23
2022-11-19T00:06:52.785Z,20.23
2022-11-19T00:08:01.340Z,20.23
2022-11-19T00:09:10.900Z,20.23
2022-11-19T00:10:19.466Z,20.219999
2022-11-19T00:11:27.080Z,20.219999
2022-11-19T00:12:36.656Z,20.219999
2022-11-19T00:13:44.273Z,20.219999
2022-11-19T00:14:52.862Z,20.219999
2022-11-19T00:16:02.397Z,20.219999
2022-11-19T00:17:10.983Z,20.219999
2022-11-19T00:18:20.587Z,20.209999
2022-11-19T00:19:29.170Z,20.209999
2022-11-19T00:20:37.739Z,20.209999
2022-11-19T00:21:47.329Z,20.209999
2022-11-19T00:22:54.910Z,20.209999
2022-11-19T00:24:04.478Z,20.209999
2022-11-19T00:25:14.081Z,20.209999
2022-11-19T00:26:21.662Z,20.200001
2022-11-19T00:27:31.256Z,20.200001
2022-11-19T00:28:39.812Z,20.200001
2022-11-19T00:29:47.396Z,20.200001
2022-11-19T00:30:56.968Z,20.200001
2022-11-19T00:32:06.541Z,20.200001
2022-11-19T00:33:15.111Z,20.190001
2022-11-19T00:34:24.688Z,20.190001
2022-11-19T00:35:32.257Z,20.190001
2022-11-19T00:36:41.815Z,20.190001
2022-11-19T00:37:51.431Z,20.190001
2022-11-19T00:38:59.991Z,20.190001
2022-11-19T00:40:09.565Z,20.18
2022-11-19T00:41:17.150Z,20.18
2022-11-19T00:42:25.752Z,20.18
2022-11-19T00:43:35.351Z,20.18
2022-11-19T00:44:43.921Z,20.18
2022-11-19T00:45:53.476Z,20.18
2022-11-19T00:47:02.115Z,20.17
2022-11-19T00:48:11.716Z,20.17
2022-11-19T00:49:21.542Z,20.17
2022-11-19T00:50:28.856Z,20.17
2022-11-19T00:51:37.425Z,20.17
2022-11-19T00:52:47.020Z,20.16
2022-11-19T00:53:54.600Z,20.16
2022-11-19T00:55:04.186Z,20.16
2022-11-19T00:56:12.784Z,20.16
2022-11-19T00:57:20.377Z,20.16
2022-11-19T00:58:29.982Z,20.16
2022-11-19T00:59:37.557Z,20.16
2022-11-19T01:00:46.170Z,20.15
2022-11-19T01:01:55.726Z,20.15
2022-11-19T01:03:03.313Z,20.15
2022-11-19T01:04:12.874Z,20.15
2022-11-19T01:05:21.459Z,20.15
2022-11-19T01:06:29.012Z,20.15
2022-11-19T01:07:38.661Z,20.139999
2022-11-19T01:08:46.181Z,20.139999
2022-11-19T01:09:54.761Z,20.139999
2022-11-19T01:11:04.326Z,20.139999
2022-11-19T01:12:11.935Z,20.139999
2022-11-19T01:13:21.481Z,20.139999
2022-11-19T01:14:30.046Z,20.129999
2022-11-19T01:15:38.635Z,20.129999
2022-11-19T01:16:48.233Z,20.129999
2022-11-19T01:17:55.826Z,20.129999
2022-11-19T01:19:04.432Z,20.129999
2022-11-19T01:20:14.044Z,20.129999
2022-11-19T01:21:21.574Z,20.129999
2022-11-19T01:22:31.166Z,20.129999
2022-11-19T01:23:39.754Z,20.120001
2022-11-19T01:24:47.337Z,20.120001
2022-11-19T01:25:56.936Z,20.120001
2022-11-19T01:27:04.505Z,20.120001
2022-11-19T01:28:13.107Z,20.120001
2022-11-19T01:29:22.686Z,20.120001
2022-11-19T01:30:30.265Z,20.110001
2022-11-19T01:31:39.859Z,20.110001
2022-11-19T01:32:48.487Z,20.110001
2022-11-19T01:33:57.166Z,20.110001
2022-11-19T01:35:06.753Z,20.110001
2022-11-19T01:36:16.348Z,20.110001
2022-11-19T01:37:24.990Z,20.110001
2022-11-19T01:38:34.678Z,20.1
2022-11-19T01:39:42.249Z,20.1
2022-11-19T01:40:51.828Z,20.1
2022-11-19T01:42:00.451Z,20.1
2022-11-19T01:43:08.139Z,20.1
2022-11-19T01:44:18.733Z,20.1
2022-11-19T01:45:26.299Z,20.1
2022-11-19T01:46:34.913Z,20.1
2022-11-19T01:47:44.548Z,20.1
2022-11-19T01:48:52.155Z,20.09
2022-11-19T01:50:01.737Z,20.09
2022-11-19T01:51:10.359Z,20.09
2022-11-19T01:52:18.981Z,20.09
2022-11-19T01:53:28.582Z,20.09
2022-11-19T01:54:36.157Z,20.09
2022-11-19T01:55:45.755Z,20.09
2022-11-19T01:56:55.315Z,20.09
2022-11-19T01:58:02.896Z,20.09
2022-11-19T01:59:12.481Z,20.09
2022-11-19T02:00:22.068Z,20.08
2022-11-19T02:01:30.735Z,20.08
2022-11-19T02:02:40.256Z,20.08
2022-11-19T02:03:47.801Z,20.08
2022-11-19T02:04:56.380Z,20.07
2022-11-19T02:06:05.940Z,20.07
2022-11-19T02:07:14.581Z,20.07
2022-11-19T02:08:24.117Z,20.07
2022-11-19T02:09:33.725Z,20.07
2022-11-19T02:10:41.277Z,20.07
2022-11-19T02:11:49.863Z,20.07
2022-11-19T02:12:59.459Z,20.07
2022-11-19T02:14:08.043Z,20.059999
2022-11-19T02:15:17.616Z,20.059999
2022-11-19T02:16:26.276Z,20.059999
2022-11-19T02:17:34.879Z,20.059999
2022-11-19T02:18:44.469Z,20.059999
2022-11-19T02:19:52.030Z,20.059999
2022-11-19T02:21:00.603Z,20.049999
2022-11-19T02:22:10.194Z,20.049999
2022-11-19T02:23:17.773Z,20.049999
2022-11-19T02:24:28.110Z,20.049999
2022-11-19T02:25:36.681Z,20.049999
2022-11-19T02:26:44.267Z,20.040001
2022-11-19T02:27:53.864Z,20.040001
2022-11-19T02:29:01.423Z,20.040001
2022-11-19T02:30:10.079Z,20.040001
2022-11-19T02:31:19.648Z,20.040001
2022-11-19T02:32:27.226Z,20.040001
2022-11-19T02:33:36.820Z,20.040001
2022-11-19T02:34:45.390Z,20.040001
2022-11-19T02:35:53.951Z,20.030001
2022-11-19T02:37:03.561Z,20.030001
2022-11-19T02:38:12.120Z,20.030001
2022-11-19T02:39:22.708Z,20.030001
2022-11-19T02:40:32.286Z,20.030001
2022-11-19T02:41:40.855Z,20.030001
2022-11-19T02:42:50.436Z,20.030001
2022-11-19T02:43:59.004Z,20.030001
2022-11-19T02:45:06.558Z,20.02
2022-11-19T02:46:16.133Z,20.02
2022-11-19T02:47:24.729Z,20.02
2022-11-19T02:48:34.318Z,20.02
2022-11-19T02:49:43.905Z,20.02
2022-11-19T02:50:52.465Z,20.02
2022-11-19T02:52:02.022Z,20.02
2022-11-19T02:53:11.604Z,20.02
2022-11-19T02:54:19.184Z,20.01
2022-11-19T02:55:27.766Z,20.01
2022-11-19T02:56:37.323Z,20.01
2022-11-19T02:57:44.889Z,20.01
2022-11-19T02:58:54.456Z,20.01
2022-11-19T03:00:04.006Z,20.01
2022-11-19T03:01:11.603Z,20.01
2022-11-19T03:02:21.159Z,20
2022-11-19T03:03:28.734Z,20
2022-11-19T03:04:37.296Z,20
2022-11-19T03:05:46.898Z,20
2022-11-19T03:06:54.578Z,20
2022-11-19T03:08:04.063Z,20
2022-11-19T03:09:12.632Z,20
2022-11-19T03:10:20.195Z,19.99
2022-11-19T03:11:28.802Z,19.99
2022-11-19T03:12:38.362Z,19.99
2022-11-19T03:13:48.038Z,19.99
2022-11-19T03:14:57.576Z,19.99
2022-11-19T03:16:07.167Z,19.98
2022-11-19T03:17:16.787Z,19.98
2022-11-19T03:18:25.387Z,19.98
2022-11-19T03:19:32.979Z,19.98
2022-11-19T03:20:42.615Z,19.98
2022-11-19T03:21:50.229Z,19.98
2022-11-19T03:22:58.792Z,19.98
2022-11-19T03:24:08.438Z,19.98
2022-11-19T03:25:16.015Z,19.969999
2022-11-19T03:26:25.589Z,19.969999
2022-11-19T03:27:34.326Z,19.969999
2022-11-19T03:28:43.908Z,19.969999
2022-11-19T03:29:53.536Z,19.969999
2022-11-19T03:31:01.167Z,19.969999
2022-11-19T03:32:09.706Z,19.969999
2022-11-19T03:33:19.385Z,19.959999
2022-11-19T03:34:26.933Z,19.959999
2022-11-19T03:35:35.510Z,19.959999
2022-11-19T03:36:45.092Z,19.959999
2022-11-19T03:37:51.660Z,19.959999
2022-11-19T03:39:01.258Z,19.959999
2022-11-19T03:40:08.819Z,19.959999
2022-11-19T03:41:17.404Z,19.959999
2022-11-19T03:42:26.986Z,19.959999
2022-11-19T03:43:34.696Z,19.959999
2022-11-19T03:44:44.139Z,19.950001
2022-11-19T03:45:52.717Z,19.950001
2022-11-19T03:47:01.283Z,19.950001
2022-11-19T03:48:10.872Z,19.950001
2022-11-19T03:49:18.635Z,19.950001
2022-11-19T03:50:26.019Z,19.950001
2022-11-19T03:51:35.601Z,19.950001
2022-11-19T03:52:43.207Z,19.950001
2022-11-19T03:53:52.745Z,19.940001
2022-11-19T03:55:01.348Z,19.940001
2022-11-19T03:56:08.955Z,19.940001
2022-11-19T03:57:18.547Z,19.940001
2022-11-19T03:58:26.166Z,19.940001
2022-11-19T03:59:34.861Z,19.940001
2022-11-19T04:00:44.374Z,19.93
2022-11-19T04:01:52.042Z,19.93
2022-11-19T04:03:01.566Z,19.93
2022-11-19T04:04:11.151Z,19.93
2022-11-19T04:05:18.847Z,19.93
2022-11-19T04:06:27.454Z,19.93
2022-11-19T04:07:37.121Z,19.93
2022-11-19T04:08:44.708Z,19.93
2022-11-19T04:09:54.344Z,19.92
2022-11-19T04:12:35.163Z,19.92
2022-11-19T04:13:44.833Z,19.92
2022-11-19T04:14:52.427Z,19.92
2022-11-19T04:16:01.966Z,19.91
2022-11-19T04:17:11.538Z,19.91
2022-11-19T04:18:19.111Z,19.91
2022-11-19T04:19:28.687Z,19.91
2022-11-19T04:20:37.249Z,19.91
2022-11-19T04:21:45.823Z,19.9
2022-11-19T04:22:55.412Z,19.9
2022-11-19T04:24:03.967Z,19.9
2022-11-19T04:25:12.521Z,19.9
2022-11-19T04:26:22.128Z,19.9
2022-11-19T04:27:30.724Z,19.9
2022-11-19T04:28:40.290Z,19.889999
2022-11-19T04:29:48.879Z,19.889999
2022-11-19T04:30:56.507Z,19.889999
2022-11-19T04:32:06.030Z,19.889999
2022-11-19T04:33:13.607Z,19.889999
2022-11-19T04:34:23.168Z,19.879999
2022-11-19T04:35:32.738Z,19.879999
2022-11-19T04:36:41.297Z,19.879999
2022-11-19T04:37:50.875Z,19.879999
2022-11-19T04:38:59.446Z,19.879999
2022-11-19T04:40:07.006Z,19.879999
2022-11-19T04:41:16.560Z,19.879999
2022-11-19T04:42:24.135Z,19.879999
2022-11-19T04:43:33.723Z,19.870001
2022-11-19T04:44:43.299Z,19.870001
2022-11-19T04:45:51.851Z,19.870001
2022-11-19T04:47:01.452Z,19.870001
2022-11-19T04:48:10.998Z,19.870001
2022-11-19T04:49:19.923Z,19.870001
2022-11-19T04:50:29.185Z,19.870001
2022-11-19T04:51:36.759Z,19.870001
2022-11-19T04:52:45.338Z,19.870001
2022-11-19T04:53:54.907Z,19.860001
2022-11-19T04:55:02.465Z,19.860001
2022-11-19T04:56:12.052Z,19.860001
2022-11-19T04:57:20.627Z,19.860001
2022-11-19T04:58:28.198Z,19.860001
2022-11-19T04:59:37.769Z,19.860001
2022-11-19T05:00:46.350Z,19.860001
2022-11-19T05:01:56.008Z,19.860001
2022-11-19T05:03:05.553Z,19.860001
2022-11-19T05:04:15.127Z,19.860001
2022-11-19T05:05:24.714Z,19.860001
2022-11-19T05:06:33.269Z,19.860001
2022-11-19T05:07:41.883Z,19.860001
2022-11-19T05:08:51.433Z,19.860001
2022-11-19T05:10:00.011Z,19.85
2022-11-19T05:11:08.566Z,19.85
2022-11-19T05:12:18.153Z,19.85
2022-11-19T05:13:26.761Z,19.85
2022-11-19T05:14:36.347Z,19.85
2022-11-19T05:15:44.923Z,19.85
2022-11-19T05:16:53.502Z,19.85
2022-11-19T05:18:03.077Z,19.85
2022-11-19T05:19:10.667Z,19.85
2022-11-19T05:20:20.248Z,19.85
2022-11-19T05:21:29.837Z,19.85
2022-11-19T05:22:37.403Z,19.85
2022-11-19T05:23:47.187Z,19.85
2022-11-19T05:24:55.805Z,19.85
2022-11-19T05:26:04.410Z,19.85
2022-11-19T05:27:13.063Z,19.85
2022-11-19T05:28:28.610Z,19.85
2022-11-19T05:29:30.232Z,19.84
2022-11-19T05:30:39.795Z,19.84
2022-11-19T05:31:47.373Z,19.84
2022-11-19T05:32:56.976Z,19.84
2022-11-19T05:34:06.541Z,19.84
2022-11-19T05:35:14.166Z,19.84
2022-11-19T05:36:23.735Z,19.84
2022-11-19T05:37:31.308Z,19.84
2022-11-19T05:38:39.902Z,19.84
2022-11-19T05:39:49.509Z,19.84
2022-11-19T05:40:57.072Z,19.84
2022-11-19T05:42:06.659Z,19.84
2022-11-19T05:43:16.260Z,19.83
2022-11-19T05:44:23.838Z,19.83
2022-11-19T05:45:33.416Z,19.83
2022-11-19T05:46:41.014Z,19.83
2022-11-19T05:47:49.587Z,19.83
2022-11-19T05:48:59.175Z,19.83
2022-11-19T05:50:06.754Z,19.83
2022-11-19T05:51:16.362Z,19.83
2022-11-19T05:52:25.947Z,19.83
2022-11-19T05:53:33.560Z,19.83
2022-11-19T05:54:43.136Z,19.83
2022-11-19T05:55:50.699Z,19.83
2022-11-19T05:56:59.288Z,19.83
2022-11-19T05:58:08.904Z,19.83
2022-11-19T05:59:16.473Z,19.83
2022-11-19T06:00:26.072Z,19.82
2022-11-19T06:01:34.619Z,19.82
2022-11-19T06:02:42.285Z,19.82
2022-11-19T06:03:50.791Z,19.82
2022-11-19T06:05:00.400Z,19.82
2022-11-19T06:06:07.980Z,19.82
2022-11-19T06:07:17.623Z,19.82
2022-11-19T06:08:27.184Z,19.82
2022-11-19T06:09:34.723Z,19.809999
2022-11-19T06:10:44.299Z,19.809999
2022-11-19T06:11:51.885Z,19.809999
2022-11-19T06:13:00.467Z,19.809999
2022-11-19T06:14:10.074Z,19.809999
2022-11-19T06:15:18.688Z,19.809999
2022-11-19T06:16:28.258Z,19.809999
2022-11-19T06:17:36.849Z,19.799999
2022-11-19T06:18:44.442Z,19.799999
2022-11-19T06:19:54.036Z,19.799999
2022-11-19T06:21:03.111Z,19.799999
2022-11-19T06:22:12.183Z,19.799999
2022-11-19T06:23:21.778Z,19.799999
2022-11-19T06:24:31.327Z,19.799999
2022-11-19T06:25:40.918Z,19.799999
2022-11-19T06:26:49.505Z,19.799999
2022-11-19T06:27:57.100Z,19.799999
2022-11-19T06:29:06.704Z,19.799999
2022-11-19T06:30:14.257Z,19.799999
2022-11-19T06:31:22.838Z,19.799999
2022-11-19T06:32:32.427Z,19.799999
2022-11-19T06:33:40.082Z,19.799999
2022-11-19T06:34:49.671Z,19.799999
2022-11-19T06:35:58.271Z,19.799999
2022-11-19T06:37:06.815Z,19.799999
2022-11-19T06:38:16.421Z,19.799999
2022-11-19T06:39:24.033Z,19.799999
2022-11-19T06:40:33.574Z,19.799999
2022-11-19T06:41:43.162Z,19.799999
2022-11-19T06:42:51.145Z,19.799999
2022-11-19T06:44:00.340Z,19.799999
2022-11-19T06:45:09.932Z,19.799999
2022-11-19T06:46:17.516Z,19.799999
2022-11-19T06:47:27.119Z,19.809999
2022-11-19T06:48:34.793Z,19.809999
2022-11-19T06:49:43.380Z,19.809999
2022-11-19T06:50:52.993Z,19.809999
2022-11-19T06:52:01.624Z,19.809999
2022-11-19T06:53:11.254Z,19.809999
2022-11-19T06:54:19.894Z,19.809999
2022-11-19T06:55:29.505Z,19.809999
2022-11-19T06:56:39.149Z,19.82
2022-11-19T06:57:46.778Z,19.82
2022-11-19T06:58:55.466Z,19.82
2022-11-19T07:00:05.028Z,19.82
2022-11-19T07:01:12.597Z,19.82
2022-11-19T07:02:22.238Z,19.82
2022-11-19T07:03:30.917Z,19.82
2022-11-19T07:04:39.540Z,19.82
2022-11-19T07:05:49.150Z,19.83
2022-11-19T07:06:56.725Z,19.83
2022-11-19T07:08:05.308Z,19.83
2022-11-19T07:09:14.930Z,19.83
2022-11-19T07:10:23.547Z,19.83
2022-11-19T07:11:33.166Z,19.83
2022-11-19T07:12:42.755Z,19.83
2022-11-19T07:13:50.377Z,19.83
2022-11-19T07:15:04.195Z,19.83
2022-11-19T07:16:09.541Z,19.82
2022-11-19T07:17:18.122Z,19.82
2022-11-19T07:18:27.738Z,19.82
2022-11-19T07:19:35.330Z,19.82
2022-11-19T07:20:44.927Z,19.82
2022-11-19T07:21:53.707Z,19.82
2022-11-19T07:23:01.289Z,19.82
2022-11-19T07:24:10.870Z,19.82
2022-11-19T07:25:18.485Z,19.82
2022-11-19T07:26:27.041Z,19.82
2022-11-19T07:27:36.649Z,19.82
2022-11-19T07:28:46.220Z,19.82
2022-11-19T07:29:55.794Z,19.82
2022-11-19T07:31:05.421Z,19.82
2022-11-19T07:32:13.024Z,19.82
2022-11-19T07:33:22.603Z,19.82
2022-11-19T07:34:30.153Z,19.82
2022-11-19T07:35:39.757Z,19.82
2022-11-19T07:36:49.425Z,19.82
2022-11-19T07:37:58.186Z,19.82
2022-11-19T07:39:07.765Z,19.82
2022-11-19T07:40:16.342Z,19.82
2022-11-19T07:41:22.917Z,19.82
2022-11-19T07:42:32.499Z,19.82
2022-11-19T07:43:41.173Z,19.82
2022-11-19T07:44:54.577Z,19.82
2022-11-19T07:46:00.321Z,19.82
2022-11-19T07:47:08.886Z,19.82
2022-11-19T07:48:18.488Z,19.82
2022-11-19T07:49:28.076Z,19.82
2022-11-19T07:50:34.690Z,19.82
2022-11-19T07:51:44.259Z,19.82
2022-11-19T07:52:51.894Z,19.83
2022-11-19T07:54:00.544Z,19.83
2022-11-19T07:55:10.131Z,19.83
2022-11-19T07:56:17.699Z,19.83
2022-11-19T07:57:30.212Z,19.83
2022-11-19T07:58:36.888Z,19.83
2022-11-19T07:59:44.481Z,19.83
2022-11-19T08:00:54.082Z,19.83
2022-11-19T08:02:03.800Z,19.83
2022-11-19T08:03:11.325Z,19.84
2022-11-19T08:04:20.907Z,19.84
2022-11-19T08:05:29.512Z,19.84
2022-11-19T08:06:37.102Z,19.84
2022-11-19T08:07:46.709Z,19.84
2022-11-19T08:08:54.312Z,19.84
2022-11-19T08:10:02.879Z,19.85
2022-11-19T08:11:12.446Z,19.85
2022-11-19T08:12:20.027Z,19.85
2022-11-19T08:13:29.642Z,19.85
2022-11-19T08:14:38.204Z,19.85
2022-11-19T08:15:45.803Z,19.860001
2022-11-19T08:16:55.357Z,19.860001
2022-11-19T08:18:03.918Z,19.860001
2022-11-19T08:19:12.521Z,19.860001
2022-11-19T08:20:22.110Z,19.860001
2022-11-19T08:21:31.708Z,19.870001
2022-11-19T08:22:41.276Z,19.870001
2022-11-19T08:23:49.911Z,19.870001
2022-11-19T08:24:57.549Z,19.870001
2022-11-19T08:26:07.146Z,19.870001
2022-11-19T08:27:14.761Z,19.870001
2022-11-19T08:28:23.363Z,19.870001
2022-11-19T08:29:31.948Z,19.870001
2022-11-19T08:30:39.536Z,19.870001
2022-11-19T08:31:49.159Z,19.870001
2022-11-19T08:32:58.724Z,19.870001
2022-11-19T08:34:06.323Z,19.870001
2022-11-19T08:35:15.883Z,19.870001
2022-11-19T08:36:22.431Z,19.879999
2022-11-19T08:37:31.044Z,19.879999
2022-11-19T08:38:40.624Z,19.879999
2022-11-19T08:39:48.178Z,19.879999
2022-11-19T08:40:57.756Z,19.879999
2022-11-19T08:42:06.317Z,19.879999
2022-11-19T08:43:14.917Z,19.879999
2022-11-19T08:44:24.484Z,19.889999
2022-11-19T08:45:32.042Z,19.889999
2022-11-19T08:46:40.669Z,19.889999
2022-11-19T08:47:50.276Z,19.889999
2022-11-19T08:48:59.826Z,19.889999
2022-11-19T08:50:09.388Z,19.889999
2022-11-19T08:51:18.959Z,19.889999
2022-11-19T08:52:26.526Z,19.889999
2022-11-19T08:53:36.137Z,19.9
2022-11-19T08:54:44.709Z,19.9
2022-11-19T08:55:53.258Z,19.9
2022-11-19T08:57:02.875Z,19.9
2022-11-19T08:58:12.467Z,19.9
2022-11-19T08:59:22.457Z,19.9
2022-11-19T09:00:30.835Z,19.91
2022-11-19T09:01:39.400Z,19.91
2022-11-19T09:02:48.968Z,19.91
2022-11-19T09:03:56.571Z,19.91
2022-11-19T09:05:07.866Z,19.91
2022-11-19T09:06:15.723Z,19.92
2022-11-19T09:07:23.447Z,19.92
2022-11-19T09:08:33.031Z,19.92
2022-11-19T09:09:41.601Z,19.92
2022-11-19T09:10:49.195Z,19.93
2022-11-19T09:11:57.789Z,19.93
2022-11-19T09:13:05.370Z,19.93
2022-11-19T09:14:14.960Z,19.93
2022-11-19T09:15:24.751Z,19.940001
2022-11-19T09:16:33.119Z,19.940001
2022-11-19T09:17:46.700Z,19.940001
2022-11-19T09:18:52.306Z,19.940001
2022-11-19T09:20:02.223Z,19.940001
2022-11-19T09:21:11.768Z,19.950001
2022-11-19T09:22:20.334Z,19.950001
2022-11-19T09:23:30.076Z,19.950001
2022-11-19T09:24:39.702Z,19.950001
2022-11-19T09:25:47.268Z,19.950001
2022-11-19T09:27:01.014Z,19.959999
2022-11-19T09:28:06.882Z,19.959999
2022-11-19T09:29:16.829Z,19.959999
2022-11-19T09:30:26.554Z,19.959999
2022-11-19T09:31:34.428Z,19.959999
2022-11-19T09:32:43.264Z,19.959999
2022-11-19T09:33:53.101Z,19.969999
2022-11-19T09:35:01.751Z,19.969999
2022-11-19T09:36:12.136Z,19.969999
2022-11-19T09:37:21.923Z,19.969999
2022-11-19T09:38:31.707Z,19.98
2022-11-19T09:39:41.551Z,19.98
2022-11-19T09:40:49.116Z,19.98
2022-11-19T09:41:57.676Z,19.99
2022-11-19T09:43:10.289Z,19.99
2022-11-19T09:44:17.390Z,19.99
2022-11-19T09:45:26.701Z,20
2022-11-19T09:46:36.335Z,20
2022-11-19T09:47:45.002Z,20
2022-11-19T09:48:54.728Z,20.01
2022-11-19T09:50:04.531Z,20.01
2022-11-19T09:51:13.071Z,20.02
2022-11-19T09:52:22.727Z,20.02
2022-11-19T09:53:32.364Z,20.030001
2022-11-19T09:54:41.910Z,20.030001
2022-11-19T09:55:50.509Z,20.040001
2022-11-19T09:57:04.168Z,20.040001
2022-11-19T09:58:08.741Z,20.049999
2022-11-19T09:59:18.475Z,20.059999
2022-11-19T10:00:26.983Z,20.059999
2022-11-19T10:01:36.552Z,20.07
2022-11-19T10:02:45.207Z,20.07
2022-11-19T10:03:52.799Z,20.08
2022-11-19T10:05:03.429Z,20.08
2022-11-19T10:06:11.161Z,20.09
2022-11-19T10:07:19.767Z,20.1
2022-11-19T10:08:29.385Z,20.1
2022-11-19T10:09:39.079Z,20.110001
2022-11-19T10:10:48.652Z,20.110001
2022-11-19T10:11:58.252Z,20.120001
2022-11-19T10:13:06.837Z,20.120001
2022-11-19T10:14:17.095Z,20.120001
2022-11-19T10:15:24.391Z,20.129999
2022-11-19T10:16:33.955Z,20.139999
2022-11-19T10:17:43.566Z,20.139999
2022-11-19T10:18:51.312Z,20.15
2022-11-19T10:20:00.812Z,20.16
2022-11-19T10:21:09.532Z,20.16
2022-11-19T10:22:17.220Z,20.17
2022-11-19T10:23:26.759Z,20.17
2022-11-19T10:24:34.374Z,20.18
2022-11-19T10:25:43.951Z,20.18
2022-11-19T10:26:53.620Z,20.190001
2022-11-19T10:28:03.268Z,20.190001
2022-11-19T10:29:12.850Z,20.190001
2022-11-19T10:30:21.543Z,20.200001
2022-11-19T10:31:29.137Z,20.200001
2022-11-19T10:32:38.988Z,20.209999
2022-11-19T10:33:46.663Z,20.209999
2022-11-19T10:34:55.311Z,20.209999
2022-11-19T10:36:05.137Z,20.219999
2022-11-19T10:37:12.745Z,20.219999
2022-11-19T10:38:22.345Z,20.23
2022-11-19T10:39:31.161Z,20.23
2022-11-19T10:40:39.779Z,20.24
2022-11-19T10:41:49.361Z,20.24
2022-11-19T10:42:56.949Z,20.24
2022-11-19T10:44:06.801Z,20.25
2022-11-19T10:45:17.316Z,20.25
2022-11-19T10:46:26.153Z,20.26
2022-11-19T10:47:36.203Z,20.26
2022-11-19T10:48:44.845Z,20.27
2022-11-19T10:49:54.743Z,20.27
2022-11-19T10:51:05.659Z,20.280001
2022-11-19T10:52:15.335Z,20.280001
2022-11-19T10:53:24.043Z,20.280001
2022-11-19T10:54:33.943Z,20.290001
2022-11-19T10:55:43.680Z,20.290001
2022-11-19T10:56:54.611Z,20.299999
2022-11-19T10:58:03.387Z,20.299999
2022-11-19T10:59:11.150Z,20.299999
2022-11-19T11:00:21.027Z,20.309999
2022-11-19T11:01:31.290Z,20.309999
2022-11-19T11:02:40.315Z,20.32
2022-11-19T11:03:50.051Z,20.32
2022-11-19T11:04:58.753Z,20.33
2022-11-19T11:06:08.389Z,20.33
2022-11-19T11:07:18.151Z,20.34
2022-11-19T11:08:25.891Z,20.34
2022-11-19T11:09:35.610Z,20.35
2022-11-19T11:10:45.161Z,20.35
2022-11-19T11:11:53.916Z,20.360001
2022-11-19T11:13:03.826Z,20.360001
2022-11-19T11:14:14.169Z,20.360001
2022-11-19T11:15:23.748Z,20.370001
2022-11-19T11:16:37.747Z,20.370001
2022-11-19T11:17:42.883Z,20.379999
2022-11-19T11:18:52.804Z,20.379999
2022-11-19T11:20:01.787Z,20.389999
2022-11-19T11:21:11.903Z,20.389999
2022-11-19T11:22:21.962Z,20.4
2022-11-19T11:23:32.242Z,20.4
2022-11-19T11:24:42.030Z,20.4
2022-11-19T11:25:50.725Z,20.41
2022-11-19T11:26:59.823Z,20.41
2022-11-19T11:28:09.490Z,20.42
2022-11-19T11:29:17.544Z,20.42
2022-11-19T11:30:27.118Z,20.43
2022-11-19T11:31:36.773Z,20.43
2022-11-19T11:32:45.525Z,20.440001
2022-11-19T11:33:55.161Z,20.440001
2022-11-19T11:35:07.592Z,20.450001
2022-11-19T11:36:14.302Z,20.450001
2022-11-19T11:37:23.987Z,20.459999
2022-11-19T11:38:31.710Z,20.459999
2022-11-19T11:39:40.395Z,20.469999
2022-11-19T11:40:49.904Z,20.469999
2022-11-19T11:42:08.290Z,20.48
2022-11-19T11:43:10.264Z,20.48
2022-11-19T11:44:20.046Z,20.48
2022-11-19T11:45:28.657Z,20.49
2022-11-19T11:46:38.333Z,20.49
2022-11-19T11:47:46.985Z,20.5
2022-11-19T11:49:03.009Z,20.5
2022-11-19T11:50:07.489Z,20.51
2022-11-19T11:51:15.082Z,20.51
2022-11-19T11:52:24.735Z,20.51
2022-11-19T11:53:33.484Z,20.52
2022-11-19T11:54:43.055Z,20.52
2022-11-19T11:55:51.599Z,20.530001
2022-11-19T11:57:01.150Z,20.530001
2022-11-19T11:58:09.738Z,20.540001
2022-11-19T11:59:19.640Z,20.540001
2022-11-19T12:00:29.120Z,20.540001
2022-11-19T12:01:36.675Z,20.549999
2022-11-19T12:02:45.293Z,20.549999
2022-11-19T12:03:55.077Z,20.559999
2022-11-19T12:05:02.585Z,20.559999
2022-11-19T12:06:12.058Z,20.559999
2022-11-19T12:07:20.942Z,20.57
2022-11-19T12:08:30.307Z,20.57
2022-11-19T12:09:38.801Z,20.57
2022-11-19T12:10:46.422Z,20.58
2022-11-19T12:11:56.107Z,20.58
2022-11-19T12:13:04.726Z,20.59
2022-11-19T12:14:13.574Z,20.59
2022-11-19T12:15:23.204Z,20.6
2022-11-19T12:16:32.754Z,20.6
2022-11-19T12:17:42.311Z,20.610001
2022-11-19T12:18:50.886Z,20.610001
2022-11-19T12:19:58.450Z,20.610001
2022-11-19T12:21:11.624Z,20.620001
2022-11-19T12:22:18.365Z,20.620001
2022-11-19T12:23:26.928Z,20.629999
2022-11-19T12:24:36.492Z,20.639999
2022-11-19T12:25:44.059Z,20.639999
2022-11-19T12:26:53.670Z,20.65
2022-11-19T12:28:02.297Z,20.65
2022-11-19T12:29:10.857Z,20.66
2022-11-19T12:30:20.453Z,20.66
2022-11-19T12:31:30.114Z,20.67
2022-11-19T12:32:38.678Z,20.68
2022-11-19T12:33:48.273Z,20.68
2022-11-19T12:34:55.871Z,20.690001
2022-11-19T12:36:05.469Z,20.690001
2022-11-19T12:37:14.003Z,20.700001
2022-11-19T12:38:21.578Z,20.709999
2022-11-19T12:39:31.154Z,20.709999
2022-11-19T12:40:40.696Z,20.719999
2022-11-19T12:41:47.450Z,20.73
2022-11-19T12:42:57.019Z,20.73
2022-11-19T12:44:04.614Z,20.74
2022-11-19T12:45:14.174Z,20.74
2022-11-19T12:46:22.768Z,20.75
2022-11-19T12:47:30.317Z,20.75
2022-11-19T12:48:40.872Z,20.76
2022-11-19T12:49:49.470Z,20.77
2022-11-19T12:50:58.031Z,20.77
2022-11-19T12:52:07.623Z,20.780001
2022-11-19T12:53:16.186Z,20.790001
2022-11-19T12:54:33.326Z,20.790001
2022-11-19T12:55:36.769Z,20.799999
2022-11-19T12:56:45.306Z,20.799999
2022-11-19T12:57:54.885Z,20.809999
2022-11-19T12:59:02.449Z,20.82
2022-11-19T13:00:10.036Z,20.82
2022-11-19T13:01:19.806Z,20.83
2022-11-19T13:02:27.348Z,20.84
2022-11-19T13:03:37.342Z,20.84
2022-11-19T13:04:46.802Z,20.85
2022-11-19T13:05:54.366Z,20.85
2022-11-19T13:07:04.061Z,20.860001
2022-11-19T13:08:12.566Z,20.870001
2022-11-19T13:09:21.608Z,20.879999
2022-11-19T13:10:30.943Z,20.879999
2022-11-19T13:11:39.923Z,20.889999
2022-11-19T13:12:49.429Z,20.889999
2022-11-19T13:13:58.055Z,20.9
2022-11-19T13:15:07.643Z,20.91
2022-11-19T13:16:17.298Z,20.91
2022-11-19T13:17:25.261Z,20.92
2022-11-19T13:18:33.843Z,20.93
2022-11-19T13:19:43.445Z,20.93
2022-11-19T13:20:53.021Z,20.940001
2022-11-19T13:22:01.599Z,20.940001
2022-11-19T13:23:10.197Z,20.950001
2022-11-19T13:24:18.210Z,20.950001
2022-11-19T13:25:27.794Z,20.959999
2022-11-19T13:26:36.348Z,20.969999
2022-11-19T13:27:43.914Z,20.969999
2022-11-19T13:28:53.472Z,20.98
2022-11-19T13:30:01.124Z,20.98
2022-11-19T13:31:10.909Z,20.98
2022-11-19T13:32:20.649Z,20.99
2022-11-19T13:33:30.258Z,20.99
2022-11-19T13:34:39.899Z,21
2022-11-19T13:35:47.621Z,21
2022-11-19T13:36:57.739Z,21.01
2022-11-19T13:38:07.301Z,21.01
2022-11-19T13:39:14.967Z,21.02
2022-11-19T13:40:24.689Z,21.02
2022-11-19T13:41:33.327Z,21.02
2022-11-19T13:42:42.148Z,21.030001
2022-11-19T13:43:52.643Z,21.030001
2022-11-19T13:45:00.282Z,21.030001
2022-11-19T13:46:09.191Z,21.040001
2022-11-19T13:47:19.334Z,21.040001
2022-11-19T13:48:28.243Z,21.040001
2022-11-19T13:49:38.196Z,21.040001
2022-11-19T13:50:47.852Z,21.049999
2022-11-19T13:51:57.808Z,21.049999
2022-11-19T13:53:07.793Z,21.049999
2022-11-19T13:54:17.387Z,21.049999
2022-11-19T13:55:26.058Z,21.049999
2022-11-19T13:56:35.617Z,21.049999
2022-11-19T13:57:44.393Z,21.059999
2022-11-19T13:58:51.970Z,21.059999